createdAt,value
2018-09-08T00:00:10.136Z,87.96
2018-09-08T00:02:39.122Z,88.01
2018-09-08T00:05:08.135Z,87.82
2018-09-08T00:07:38.494Z,87.78
2018-09-08T00:10:09.593Z,87.74
2018-09-08T00:12:38.570Z,87.68
2018-09-08T00:15:14.871Z,87.82
2018-09-08T00:17:49.222Z,87.72
2018-09-08T00:20:23.534Z,88.14
2018-09-08T00:22:58.013Z,87.94
2018-09-08T00:25:32.398Z,87.96
2018-09-08T00:28:06.721Z,88.26
2018-09-08T00:30:35.702Z,88.26
2018-09-08T00:33:04.709Z,88.05
2018-09-08T00:35:33.710Z,88.08
2018-09-08T00:38:03.023Z,87.94
2018-09-08T00:40:32.027Z,87.95
2018-09-08T00:43:00.996Z,87.69
2018-09-08T00:45:30.822Z,87.89
2018-09-08T00:47:59.840Z,87.88
2018-09-08T00:50:28.837Z,88.01
2018-09-08T00:52:57.829Z,88.01
2018-09-08T00:55:26.895Z,88.59
2018-09-08T00:57:56.685Z,88.21
2018-09-08T01:00:25.677Z,88.26
2018-09-08T01:02:54.705Z,88.33
2018-09-08T01:05:23.770Z,88.57
2018-09-08T01:07:52.784Z,88.54
2018-09-08T01:10:21.783Z,88.59
2018-09-08T01:12:50.961Z,88.15
2018-09-08T01:15:19.966Z,88.25
2018-09-08T01:17:48.945Z,88.31
2018-09-08T01:20:17.981Z,88.61
2018-09-08T01:22:46.974Z,88.91
2018-09-08T01:25:16.007Z,88.77
2018-09-08T01:27:45.014Z,89.21
2018-09-08T01:30:14.094Z,88.74
2018-09-08T01:32:43.133Z,88.89
2018-09-08T01:35:12.146Z,89.05
2018-09-08T01:37:41.218Z,88.76
2018-09-08T01:40:10.622Z,88.28
2018-09-08T01:42:39.614Z,88.57
2018-09-08T01:45:08.886Z,88.53
2018-09-08T01:47:37.890Z,88.29
2018-09-08T01:50:06.938Z,88.24
2018-09-08T01:52:36.773Z,88.24
2018-09-08T01:55:05.792Z,88.10
2018-09-08T01:57:34.808Z,88.24
2018-09-08T02:00:04.072Z,88.61
2018-09-08T02:02:33.057Z,88.59
2018-09-08T02:05:02.101Z,88.64
2018-09-08T02:07:31.139Z,89.12
2018-09-08T02:10:00.121Z,88.46
2018-09-08T02:12:29.123Z,88.76
2018-09-08T02:14:58.132Z,88.61
2018-09-08T02:17:27.117Z,88.85
2018-09-08T02:19:56.197Z,88.52
2018-09-08T02:22:25.184Z,88.67
2018-09-08T02:24:54.375Z,88.55
2018-09-08T02:27:23.579Z,88.04
2018-09-08T02:29:52.829Z,87.88
2018-09-08T02:32:21.845Z,88.29
2018-09-08T02:34:50.833Z,88.23
2018-09-08T02:37:19.825Z,88.28
2018-09-08T02:39:48.835Z,88.29
2018-09-08T02:42:17.830Z,88.40
2018-09-08T02:44:46.854Z,88.23
2018-09-08T02:47:15.842Z,88.28
2018-09-08T02:49:56.250Z,88.57
2018-09-08T02:52:24.197Z,88.75
2018-09-08T02:54:52.162Z,88.41
2018-09-08T02:57:20.145Z,88.56
2018-09-08T02:59:48.093Z,88.52
2018-09-08T03:02:16.078Z,88.88
2018-09-08T03:04:44.022Z,88.54
2018-09-08T03:07:13.494Z,88.71
2018-09-08T03:09:45.568Z,88.26
2018-09-08T03:12:13.754Z,88.58
2018-09-08T03:14:41.725Z,88.55
2018-09-08T03:17:09.683Z,88.69
2018-09-08T03:19:37.654Z,88.43
2018-09-08T03:22:05.617Z,88.23
2018-09-08T03:24:33.571Z,88.01
2018-09-08T03:27:01.546Z,88.30
2018-09-08T03:29:29.493Z,87.92
2018-09-08T03:31:57.477Z,87.85
2018-09-08T03:34:25.455Z,88.19
2018-09-08T03:36:53.385Z,88.52
2018-09-08T03:39:21.333Z,88.49
2018-09-08T03:41:49.301Z,88.45
2018-09-08T03:44:17.294Z,88.19
2018-09-08T03:46:45.241Z,87.75
2018-09-08T03:49:13.225Z,88.00
2018-09-08T03:51:41.174Z,87.94
2018-09-08T03:54:09.125Z,87.71
2018-09-08T03:56:37.239Z,88.09
2018-09-08T03:59:05.270Z,88.11
2018-09-08T04:01:33.167Z,88.10
2018-09-08T04:04:02.415Z,87.75
2018-09-08T04:06:31.473Z,87.24
2018-09-08T04:09:00.566Z,87.73
2018-09-08T04:11:29.713Z,87.63
2018-09-08T04:13:58.694Z,87.76
2018-09-08T04:16:27.685Z,88.00
2018-09-08T04:18:56.691Z,87.78
2018-09-08T04:21:25.873Z,87.96
2018-09-08T04:23:54.922Z,87.83
2018-09-08T04:26:23.871Z,88.03
2018-09-08T04:28:52.849Z,88.14
2018-09-08T04:31:21.853Z,88.03
2018-09-08T04:33:50.838Z,88.32
2018-09-08T04:36:19.851Z,88.11
2018-09-08T04:38:48.954Z,88.15
2018-09-08T04:41:17.914Z,88.07
2018-09-08T04:43:46.918Z,87.91
2018-09-08T04:46:15.889Z,88.38
2018-09-08T04:48:44.941Z,88.45
2018-09-08T04:51:13.926Z,88.74
2018-09-08T04:53:42.938Z,88.49
2018-09-08T04:56:11.925Z,88.61
2018-09-08T04:58:40.921Z,88.39
2018-09-08T05:01:09.934Z,89.27
2018-09-08T05:03:38.921Z,88.85
2018-09-08T05:06:07.941Z,89.00
2018-09-08T05:08:36.961Z,88.94
2018-09-08T05:11:05.942Z,88.49
2018-09-08T05:13:35.027Z,88.72
2018-09-08T05:16:04.094Z,88.59
2018-09-08T05:18:33.162Z,88.39
2018-09-08T05:21:02.167Z,88.52
2018-09-08T05:23:31.154Z,88.54
2018-09-08T05:26:00.167Z,88.82
2018-09-08T05:28:29.153Z,89.08
2018-09-08T05:30:58.154Z,89.68
2018-09-08T05:33:27.146Z,88.93
2018-09-08T05:35:56.250Z,89.46
2018-09-08T05:38:25.339Z,89.23
2018-09-08T05:40:54.357Z,89.01
2018-09-08T05:43:23.370Z,88.76
2018-09-08T05:45:52.377Z,88.95
2018-09-08T05:48:21.456Z,88.60
2018-09-08T05:50:50.441Z,88.79
2018-09-08T05:53:19.513Z,89.86
2018-09-08T05:55:48.509Z,89.54
2018-09-08T05:58:17.543Z,89.35
2018-09-08T06:00:46.593Z,89.58
2018-09-08T06:03:15.588Z,89.57
2018-09-08T06:05:44.677Z,89.55
2018-09-08T06:08:13.695Z,89.53
2018-09-08T06:10:42.695Z,88.68
2018-09-08T06:13:11.685Z,88.24
2018-09-08T06:15:40.669Z,88.64
2018-09-08T06:18:09.721Z,88.41
2018-09-08T06:20:38.743Z,88.74
2018-09-08T06:23:07.854Z,88.10
2018-09-08T06:25:36.980Z,88.23
2018-09-08T06:28:06.105Z,87.37
2018-09-08T06:30:35.111Z,87.78
2018-09-08T06:33:04.093Z,87.00
2018-09-08T06:35:33.102Z,86.26
2018-09-08T06:38:02.094Z,86.68
2018-09-08T06:40:31.146Z,86.82
2018-09-08T06:43:00.131Z,87.07
2018-09-08T06:45:29.150Z,86.94
2018-09-08T06:47:58.211Z,85.98
2018-09-08T06:50:27.186Z,85.08
2018-09-08T06:52:56.185Z,85.09
2018-09-08T06:55:25.174Z,84.80
2018-09-08T06:57:54.256Z,84.70
2018-09-08T07:00:23.166Z,84.88
2018-09-08T07:02:52.273Z,84.41
2018-09-08T07:05:21.285Z,83.75
2018-09-08T07:07:50.624Z,83.73
2018-09-08T07:10:19.702Z,83.14
2018-09-08T07:12:48.734Z,83.33
2018-09-08T07:15:17.765Z,82.64
2018-09-08T07:17:46.741Z,82.69
2018-09-08T07:20:15.730Z,82.20
2018-09-08T07:22:44.734Z,82.03
2018-09-08T07:25:13.743Z,82.62
2018-09-08T07:27:42.773Z,82.07
2018-09-08T07:30:11.794Z,81.70
2018-09-08T07:32:40.790Z,81.22
2018-09-08T07:35:09.907Z,80.09
2018-09-08T07:37:38.957Z,80.87
2018-09-08T07:40:07.961Z,80.48
2018-09-08T07:42:36.976Z,80.07
2018-09-08T07:45:05.966Z,77.67
2018-09-08T07:47:34.998Z,77.67
2018-09-08T07:50:04.866Z,77.76
2018-09-08T07:52:33.845Z,77.89
2018-09-08T07:55:03.081Z,76.97
2018-09-08T07:57:32.094Z,74.79
2018-09-08T08:00:01.118Z,71.74
2018-09-08T08:02:30.110Z,74.84
2018-09-08T08:04:59.130Z,75.66
2018-09-08T08:07:28.130Z,73.99
2018-09-08T08:09:57.226Z,73.07
2018-09-08T08:12:26.213Z,69.62
2018-09-08T08:14:55.205Z,69.91
2018-09-08T08:17:24.219Z,69.37
2018-09-08T08:19:53.445Z,70.81
2018-09-08T08:22:22.520Z,72.06
2018-09-08T08:24:51.551Z,72.10
2018-09-08T08:27:20.685Z,68.40
2018-09-08T08:29:49.669Z,65.81
2018-09-08T08:32:18.689Z,65.78
2018-09-08T08:34:47.743Z,66.20
2018-09-08T08:37:16.813Z,69.02
2018-09-08T08:39:45.745Z,68.97
2018-09-08T08:42:14.754Z,65.73
2018-09-08T08:44:43.749Z,66.07
2018-09-08T08:47:12.825Z,61.98
2018-09-08T08:49:41.973Z,61.33
2018-09-08T08:52:22.266Z,60.76
2018-09-08T08:54:55.284Z,59.56
2018-09-08T08:57:24.345Z,59.79
2018-09-08T08:59:53.355Z,57.60
2018-09-08T09:02:22.488Z,55.69
2018-09-08T09:04:51.445Z,55.00
2018-09-08T09:07:20.446Z,54.73
2018-09-08T09:09:49.453Z,54.24
2018-09-08T09:12:18.564Z,53.09
2018-09-08T09:14:47.541Z,53.96
2018-09-08T09:17:16.534Z,50.41
2018-09-08T09:19:56.702Z,48.59
2018-09-08T09:22:37.001Z,50.09
2018-09-08T09:25:07.909Z,50.57
2018-09-08T09:27:40.334Z,49.07
2018-09-08T09:30:09.598Z,51.06
2018-09-08T09:32:38.673Z,48.36
2018-09-08T09:35:09.074Z,48.02
2018-09-08T09:37:38.454Z,50.46
2018-09-08T09:40:08.169Z,50.65
2018-09-08T09:42:37.137Z,50.17
2018-09-08T09:45:06.542Z,52.58
2018-09-08T09:47:35.640Z,46.99
2018-09-08T09:50:04.721Z,50.37
2018-09-08T09:52:33.729Z,47.58
2018-09-08T09:55:02.714Z,49.28
2018-09-08T09:57:31.826Z,49.75
2018-09-08T10:00:01.058Z,48.27
2018-09-08T10:02:39.154Z,48.74
2018-09-08T10:05:10.674Z,48.87
2018-09-08T10:07:39.669Z,50.65
2018-09-08T10:10:10.413Z,49.97
2018-09-08T10:12:39.542Z,49.71
2018-09-08T10:15:09.026Z,49.88
2018-09-08T10:17:38.663Z,47.37
2018-09-08T10:20:09.221Z,47.53
2018-09-08T10:22:38.245Z,46.49
2018-09-08T10:25:08.754Z,48.02
2018-09-08T10:27:37.761Z,46.02
2018-09-08T10:30:07.944Z,49.98
2018-09-08T10:32:36.935Z,46.76
2018-09-08T10:35:06.102Z,46.29
2018-09-08T10:37:35.134Z,46.68
2018-09-08T10:40:04.302Z,45.95
2018-09-08T10:42:33.286Z,45.53
2018-09-08T10:45:02.286Z,46.86
2018-09-08T10:47:31.274Z,45.43
2018-09-08T10:50:00.529Z,46.72
2018-09-08T10:52:32.313Z,43.92
2018-09-08T10:55:01.329Z,44.89
2018-09-08T10:57:30.302Z,45.46
2018-09-08T10:59:59.942Z,44.11
2018-09-08T11:02:29.492Z,43.07
2018-09-08T11:04:58.366Z,42.32
2018-09-08T11:07:27.434Z,43.58
2018-09-08T11:09:56.458Z,43.32
2018-09-08T11:12:25.489Z,42.10
2018-09-08T11:14:54.475Z,41.48
2018-09-08T11:17:23.623Z,43.21
2018-09-08T11:19:52.689Z,43.51
2018-09-08T11:22:21.670Z,40.75
2018-09-08T11:24:50.662Z,41.55
2018-09-08T11:27:19.629Z,41.82
2018-09-08T11:29:48.642Z,40.96
2018-09-08T11:32:17.637Z,43.73
2018-09-08T11:34:46.622Z,40.76
2018-09-08T11:37:16.909Z,40.30
2018-09-08T11:39:45.995Z,41.76
2018-09-08T11:42:15.011Z,42.46
2018-09-08T11:44:44.036Z,40.96
2018-09-08T11:47:12.993Z,41.98
2018-09-08T11:49:42.019Z,41.19
2018-09-08T11:52:10.971Z,41.32
2018-09-08T11:54:40.138Z,40.82
2018-09-08T11:57:09.126Z,41.65
2018-09-08T11:59:38.176Z,38.23
2018-09-08T12:02:07.140Z,40.58
2018-09-08T12:04:36.165Z,41.40
2018-09-08T12:07:05.320Z,41.20
2018-09-08T12:09:34.297Z,39.93
2018-09-08T12:12:03.310Z,39.86
2018-09-08T12:14:32.310Z,38.95
2018-09-08T12:17:01.385Z,38.48
2018-09-08T12:19:30.353Z,39.55
2018-09-08T12:21:59.345Z,37.65
2018-09-08T12:24:28.377Z,38.46
2018-09-08T12:26:57.400Z,36.85
2018-09-08T12:29:26.402Z,36.51
2018-09-08T12:31:55.400Z,36.05
2018-09-08T12:34:24.405Z,37.11
2018-09-08T12:36:53.381Z,37.77
2018-09-08T12:39:22.418Z,37.52
2018-09-08T12:41:51.402Z,36.70
2018-09-08T12:44:20.385Z,36.75
2018-09-08T12:46:49.353Z,36.45
2018-09-08T12:49:18.377Z,36.15
2018-09-08T12:51:47.370Z,38.47
2018-09-08T12:54:16.371Z,36.67
2018-09-08T12:56:45.345Z,35.79
2018-09-08T12:59:14.449Z,35.72
2018-09-08T13:01:43.305Z,36.47
2018-09-08T13:04:12.309Z,35.84
2018-09-08T13:06:41.297Z,37.12
2018-09-08T13:09:10.283Z,36.38
2018-09-08T13:11:39.297Z,36.89
2018-09-08T13:14:08.273Z,36.38
2018-09-08T13:16:37.281Z,36.87
2018-09-08T13:19:06.303Z,35.53
2018-09-08T13:21:35.593Z,36.85
2018-09-08T13:24:04.625Z,35.76
2018-09-08T13:26:33.569Z,35.73
2018-09-08T13:29:02.565Z,35.78
2018-09-08T13:31:31.538Z,35.15
2018-09-08T13:34:00.661Z,35.03
2018-09-08T13:36:29.654Z,37.21
2018-09-08T13:38:58.622Z,36.46
2018-09-08T13:41:28.148Z,35.21
2018-09-08T13:43:57.131Z,42.65
2018-09-08T13:46:26.741Z,36.44
2018-09-08T13:48:55.702Z,35.33
2018-09-08T13:51:24.679Z,37.81
2018-09-08T13:53:54.026Z,35.09
2018-09-08T13:56:23.006Z,35.39
2018-09-08T13:58:51.997Z,33.22
2018-09-08T14:01:20.993Z,37.24
2018-09-08T14:03:49.994Z,36.58
2018-09-08T14:06:19.293Z,35.01
2018-09-08T14:08:48.270Z,34.59
2018-09-08T14:11:17.262Z,35.09
2018-09-08T14:13:52.602Z,35.46
2018-09-08T14:16:21.586Z,35.98
2018-09-08T14:18:50.554Z,35.24
2018-09-08T14:21:19.572Z,34.92
2018-09-08T14:23:48.725Z,36.67
2018-09-08T14:26:17.701Z,36.09
2018-09-08T14:28:46.690Z,34.75
2018-09-08T14:31:15.683Z,34.51
2018-09-08T14:33:44.670Z,36.67
2018-09-08T14:36:13.677Z,35.28
2018-09-08T14:38:42.942Z,35.56
2018-09-08T14:41:11.926Z,36.22
2018-09-08T14:43:40.918Z,36.23
2018-09-08T14:46:09.913Z,35.23
2018-09-08T14:48:38.905Z,34.51
2018-09-08T14:51:07.910Z,36.43
2018-09-08T14:53:36.922Z,35.00
2018-09-08T14:56:06.257Z,36.08
2018-09-08T14:58:35.259Z,36.33
2018-09-08T15:01:04.245Z,35.91
2018-09-08T15:03:33.215Z,35.19
2018-09-08T15:06:02.269Z,34.91
2018-09-08T15:08:31.250Z,36.90
2018-09-08T15:11:00.241Z,36.38
2018-09-08T15:13:29.247Z,36.94
2018-09-08T15:15:58.286Z,37.84
2018-09-08T15:18:27.304Z,37.31
2018-09-08T15:20:56.308Z,37.00
2018-09-08T15:23:26.110Z,37.34
2018-09-08T15:25:55.229Z,36.74
2018-09-08T15:28:24.234Z,36.15
2018-09-08T15:30:53.238Z,37.61
2018-09-08T15:33:22.218Z,36.80
2018-09-08T15:35:51.226Z,37.81
2018-09-08T15:38:20.242Z,38.34
2018-09-08T15:40:49.217Z,39.00
2018-09-08T15:43:18.219Z,36.39
2018-09-08T15:45:47.254Z,36.17
2018-09-08T15:48:16.330Z,36.46
2018-09-08T15:50:45.364Z,36.52
2018-09-08T15:53:14.294Z,37.77
2018-09-08T15:55:43.626Z,39.95
2018-09-08T15:58:12.656Z,39.69
2018-09-08T16:00:41.589Z,38.21
2018-09-08T16:03:10.597Z,38.56
2018-09-08T16:05:39.562Z,38.40
2018-09-08T16:08:08.582Z,38.56
2018-09-08T16:10:38.177Z,38.10
2018-09-08T16:13:07.900Z,38.04
2018-09-08T16:15:37.749Z,37.88
2018-09-08T16:18:06.937Z,38.17
2018-09-08T16:20:35.961Z,39.31
2018-09-08T16:23:05.178Z,38.08
2018-09-08T16:25:34.282Z,38.43
2018-09-08T16:28:09.627Z,39.06
2018-09-08T16:30:38.609Z,39.01
2018-09-08T16:33:07.610Z,38.30
2018-09-08T16:35:36.589Z,38.10
2018-09-08T16:38:05.801Z,38.81
2018-09-08T16:40:34.799Z,39.99
2018-09-08T16:43:03.845Z,40.11
2018-09-08T16:45:32.835Z,42.20
2018-09-08T16:48:01.868Z,43.72
2018-09-08T16:50:30.867Z,45.75
2018-09-08T16:52:59.879Z,47.54
2018-09-08T16:55:29.211Z,48.99
2018-09-08T16:57:58.280Z,51.34
2018-09-08T17:00:27.249Z,52.08
2018-09-08T17:02:56.314Z,52.93
2018-09-08T17:05:25.320Z,52.78
2018-09-08T17:07:54.285Z,52.67
2018-09-08T17:10:23.267Z,52.76
2018-09-08T17:12:52.285Z,54.81
2018-09-08T17:15:21.294Z,55.28
2018-09-08T17:17:50.351Z,56.22
2018-09-08T17:20:19.315Z,57.48
2018-09-08T17:22:48.379Z,57.65
2018-09-08T17:25:17.363Z,58.49
2018-09-08T17:27:46.358Z,58.75
2018-09-08T17:30:15.330Z,59.38
2018-09-08T17:32:44.341Z,59.76
2018-09-08T17:35:13.348Z,60.65
2018-09-08T17:37:42.329Z,60.34
2018-09-08T17:40:11.326Z,61.43
2018-09-08T17:42:40.337Z,62.02
2018-09-08T17:45:09.494Z,63.01
2018-09-08T17:47:38.498Z,62.48
2018-09-08T17:50:07.664Z,62.87
2018-09-08T17:52:36.661Z,63.39
2018-09-08T17:55:05.890Z,64.19
2018-09-08T17:57:34.933Z,64.73
2018-09-08T18:00:03.889Z,64.68
2018-09-08T18:02:33.035Z,64.99
2018-09-08T18:05:02.340Z,65.97
2018-09-08T18:07:31.321Z,65.70
2018-09-08T18:10:00.301Z,65.55
2018-09-08T18:12:29.305Z,66.75
2018-09-08T18:14:58.317Z,66.62
2018-09-08T18:17:27.477Z,66.84
2018-09-08T18:19:56.474Z,66.85
2018-09-08T18:22:25.445Z,66.55
2018-09-08T18:24:54.429Z,66.73
2018-09-08T18:27:23.409Z,66.45
2018-09-08T18:29:52.454Z,66.91
2018-09-08T18:32:21.570Z,67.43
2018-09-08T18:34:50.839Z,67.74
2018-09-08T18:37:19.967Z,66.55
2018-09-08T18:39:48.977Z,66.18
2018-09-08T18:42:17.981Z,67.21
2018-09-08T18:44:55.383Z,67.34
2018-09-08T18:47:24.446Z,67.66
2018-09-08T18:49:53.508Z,67.40
2018-09-08T18:52:22.481Z,67.79
2018-09-08T18:54:51.473Z,68.64
2018-09-08T18:57:20.457Z,68.09
2018-09-08T18:59:49.453Z,68.47
2018-09-08T19:02:18.438Z,68.57
2018-09-08T19:04:47.442Z,67.99
2018-09-08T19:07:17.969Z,68.50
2018-09-08T19:09:52.015Z,67.82
2018-09-08T19:12:22.069Z,68.58
2018-09-08T19:14:56.386Z,68.84
2018-09-08T19:17:25.393Z,69.74
2018-09-08T19:19:59.767Z,70.23
2018-09-08T19:22:29.135Z,68.33
2018-09-08T19:24:58.131Z,67.99
2018-09-08T19:27:27.137Z,67.96
2018-09-08T19:30:00.429Z,67.97
2018-09-08T19:32:29.779Z,66.47
2018-09-08T19:35:04.562Z,68.14
2018-09-08T19:37:34.801Z,68.24
2018-09-08T19:40:03.790Z,69.15
2018-09-08T19:42:33.640Z,69.26
2018-09-08T19:45:02.617Z,69.37
2018-09-08T19:47:36.963Z,69.62
2018-09-08T19:50:05.986Z,70.77
2018-09-08T19:52:40.373Z,70.89
2018-09-08T19:55:09.379Z,70.64
2018-09-08T19:57:43.810Z,71.02
2018-09-08T20:00:12.818Z,71.17
2018-09-08T20:02:41.810Z,72.12
2018-09-08T20:05:10.828Z,72.19
2018-09-08T20:07:39.817Z,72.27
2018-09-08T20:10:08.827Z,72.23
2018-09-08T20:12:37.833Z,70.59
2018-09-08T20:15:07.200Z,71.60
2018-09-08T20:17:36.437Z,71.79
2018-09-08T20:20:06.157Z,70.60
2018-09-08T20:22:35.243Z,71.82
2018-09-08T20:25:04.430Z,72.14
2018-09-08T20:27:33.422Z,69.75
2018-09-08T20:30:03.309Z,70.61
2018-09-08T20:32:32.289Z,70.87
2018-09-08T20:35:01.310Z,69.73
2018-09-08T20:37:30.283Z,69.60
2018-09-08T20:39:59.274Z,69.73
2018-09-08T20:42:28.321Z,70.73
2018-09-08T20:44:57.313Z,70.51
2018-09-08T20:47:26.297Z,71.98
2018-09-08T20:49:55.490Z,71.94
2018-09-08T20:52:24.474Z,69.98
2018-09-08T20:54:53.449Z,68.71
2018-09-08T20:57:22.473Z,69.49
2018-09-08T20:59:51.447Z,70.14
2018-09-08T21:02:20.487Z,71.40
2018-09-08T21:04:49.480Z,72.29
2018-09-08T21:07:18.467Z,73.00
2018-09-08T21:09:47.479Z,73.10
2018-09-08T21:12:16.570Z,73.83
2018-09-08T21:14:45.598Z,74.20
2018-09-08T21:17:14.593Z,74.58
2018-09-08T21:19:43.602Z,74.48
2018-09-08T21:22:12.602Z,74.84
2018-09-08T21:24:41.586Z,73.29
2018-09-08T21:27:10.855Z,73.46
2018-09-08T21:29:39.826Z,74.23
2018-09-08T21:32:08.802Z,74.37
2018-09-08T21:34:37.863Z,75.04
2018-09-08T21:37:06.930Z,75.51
2018-09-08T21:39:35.937Z,75.09
2018-09-08T21:42:04.917Z,73.57
2018-09-08T21:44:33.890Z,73.72
2018-09-08T21:47:05.862Z,73.61
2018-09-08T21:49:31.977Z,73.75
2018-09-08T21:52:01.138Z,72.80
2018-09-08T21:54:30.102Z,73.17
2018-09-08T21:56:59.111Z,73.66
2018-09-08T21:59:28.083Z,71.67
2018-09-08T22:01:57.290Z,71.21
2018-09-08T22:04:26.266Z,71.83
2018-09-08T22:06:55.606Z,71.54
2018-09-08T22:09:24.586Z,70.82
2018-09-08T22:11:53.565Z,71.56
2018-09-08T22:14:22.630Z,71.14
2018-09-08T22:16:51.606Z,72.74
2018-09-08T22:19:20.622Z,73.23
2018-09-08T22:21:49.602Z,74.23
2018-09-08T22:24:18.613Z,74.73
2018-09-08T22:26:47.688Z,75.13
2018-09-08T22:29:16.679Z,74.91
2018-09-08T22:31:45.677Z,75.14
2018-09-08T22:34:14.738Z,74.67
2018-09-08T22:36:43.738Z,75.08
2018-09-08T22:39:12.730Z,74.59
2018-09-08T22:41:41.992Z,73.63
2018-09-08T22:44:10.969Z,74.29
2018-09-08T22:46:39.945Z,72.75
2018-09-08T22:49:08.958Z,73.23
2018-09-08T22:51:37.946Z,73.90
2018-09-08T22:54:07.113Z,72.42
2018-09-08T22:56:36.114Z,71.12
2018-09-08T22:59:05.090Z,72.00
2018-09-08T23:01:34.121Z,71.51
2018-09-08T23:04:03.097Z,68.77
2018-09-08T23:06:32.078Z,66.95
2018-09-08T23:09:01.138Z,66.03
2018-09-08T23:11:30.123Z,65.99
2018-09-08T23:13:59.174Z,66.04
2018-09-08T23:16:28.254Z,66.22
2018-09-08T23:18:57.238Z,66.78
2018-09-08T23:21:26.289Z,67.12
2018-09-08T23:23:55.288Z,67.27
2018-09-08T23:26:24.311Z,68.47
2018-09-08T23:28:53.293Z,68.93
2018-09-08T23:31:22.273Z,68.68
2018-09-08T23:33:51.323Z,69.54
2018-09-08T23:36:20.313Z,69.58
2018-09-08T23:38:49.321Z,70.37
2018-09-08T23:41:18.309Z,71.26
2018-09-08T23:43:47.310Z,71.82
2018-09-08T23:46:16.293Z,71.87
2018-09-08T23:48:45.313Z,72.18
2018-09-08T23:51:14.355Z,72.18
2018-09-08T23:53:43.342Z,72.75
2018-09-08T23:56:12.339Z,72.60
2018-09-08T23:58:41.314Z,73.73
